sensor_id;sensor_type;location;lat;lon;timestamp;temperature;humidity
71942;DHT22;59997;53.300;-6.260;2023-11-19T00:00:25;11.32;87.73
71942;DHT22;59997;53.300;-6.260;2023-11-19T00:02:51;11.29;88.04
71942;DHT22;59997;53.300;-6.260;2023-11-19T00:05:16;11.39;88.05
71942;DHT22;59997;53.300;-6.260;2023-11-19T00:07:42;11.35;88.29
71942;DHT22;59997;53.300;-6.260;2023-11-19T00:10:12;11.19;88.69
71942;DHT22;59997;53.300;-6.260;2023-11-19T00:12:42;11.14;88.71
71942;DHT22;59997;53.300;-6.260;2023-11-19T00:15:09;11.08;88.58
71942;DHT22;59997;53.300;-6.260;2023-11-19T00:17:44;10.87;88.96
71942;DHT22;59997;53.300;-6.260;2023-11-19T00:20:13;10.78;89.22
71942;DHT22;59997;53.300;-6.260;2023-11-19T00:22:39;10.80;89.05
71942;DHT22;59997;53.300;-6.260;2023-11-19T00:25:05;11.00;88.74
71942;DHT22;59997;53.300;-6.260;2023-11-19T00:27:31;11.15;89.00
71942;DHT22;59997;53.300;-6.260;2023-11-19T00:29:57;11.00;90.15
71942;DHT22;59997;53.300;-6.260;2023-11-19T00:32:23;10.81;90.33
71942;DHT22;59997;53.300;-6.260;2023-11-19T00:34:48;10.67;90.76
71942;DHT22;59997;53.300;-6.260;2023-11-19T00:37:14;10.60;90.59
71942;DHT22;59997;53.300;-6.260;2023-11-19T00:39:43;10.43;90.71
71942;DHT22;59997;53.300;-6.260;2023-11-19T00:42:09;10.53;90.63
71942;DHT22;59997;53.300;-6.260;2023-11-19T00:44:35;10.67;90.23
71942;DHT22;59997;53.300;-6.260;2023-11-19T00:47:01;10.77;89.60
71942;DHT22;59997;53.300;-6.260;2023-11-19T00:49:27;10.77;89.60
71942;DHT22;59997;53.300;-6.260;2023-11-19T00:51:52;10.73;89.68
71942;DHT22;59997;53.300;-6.260;2023-11-19T00:54:18;10.78;89.58
71942;DHT22;59997;53.300;-6.260;2023-11-19T00:56:43;10.80;89.23
71942;DHT22;59997;53.300;-6.260;2023-11-19T00:59:10;10.76;89.09
71942;DHT22;59997;53.300;-6.260;2023-11-19T01:01:36;10.71;89.14
71942;DHT22;59997;53.300;-6.260;2023-11-19T01:04:01;10.76;89.02
71942;DHT22;59997;53.300;-6.260;2023-11-19T01:06:30;10.94;88.14
71942;DHT22;59997;53.300;-6.260;2023-11-19T01:08:59;10.90;88.09
71942;DHT22;59997;53.300;-6.260;2023-11-19T01:11:26;10.78;88.60
71942;DHT22;59997;53.300;-6.260;2023-11-19T01:13:52;10.70;88.74
71942;DHT22;59997;53.300;-6.260;2023-11-19T01:16:18;10.81;88.37
71942;DHT22;59997;53.300;-6.260;2023-11-19T01:18:44;10.93;88.13
71942;DHT22;59997;53.300;-6.260;2023-11-19T01:21:10;10.91;88.17
71942;DHT22;59997;53.300;-6.260;2023-11-19T01:23:36;10.80;88.49
71942;DHT22;59997;53.300;-6.260;2023-11-19T01:26:02;10.77;88.70
71942;DHT22;59997;53.300;-6.260;2023-11-19T01:28:28;10.67;88.96
71942;DHT22;59997;53.300;-6.260;2023-11-19T01:30:53;10.70;88.85
71942;DHT22;59997;53.300;-6.260;2023-11-19T01:33:19;10.78;88.44
71942;DHT22;59997;53.300;-6.260;2023-11-19T01:35:44;10.85;88.23
71942;DHT22;59997;53.300;-6.260;2023-11-19T01:38:10;10.81;88.65
71942;DHT22;59997;53.300;-6.260;2023-11-19T01:40:36;10.87;88.39
71942;DHT22;59997;53.300;-6.260;2023-11-19T01:43:02;10.83;88.38
71942;DHT22;59997;53.300;-6.260;2023-11-19T01:45:30;10.87;88.48
71942;DHT22;59997;53.300;-6.260;2023-11-19T01:47:56;10.93;88.27
71942;DHT22;59997;53.300;-6.260;2023-11-19T01:50:23;11.00;87.96
71942;DHT22;59997;53.300;-6.260;2023-11-19T01:52:52;11.01;87.89
71942;DHT22;59997;53.300;-6.260;2023-11-19T01:55:19;10.91;88.17
71942;DHT22;59997;53.300;-6.260;2023-11-19T01:57:46;11.07;87.55
71942;DHT22;59997;53.300;-6.260;2023-11-19T02:00:13;11.23;87.23
71942;DHT22;59997;53.300;-6.260;2023-11-19T02:02:40;11.32;86.75
71942;DHT22;59997;53.300;-6.260;2023-11-19T02:05:06;11.29;87.01
71942;DHT22;59997;53.300;-6.260;2023-11-19T02:07:32;11.33;86.89
71942;DHT22;59997;53.300;-6.260;2023-11-19T02:09:57;11.30;86.82
71942;DHT22;59997;53.300;-6.260;2023-11-19T02:12:26;11.15;87.05
71942;DHT22;59997;53.300;-6.260;2023-11-19T02:14:53;11.12;87.10
71942;DHT22;59997;53.300;-6.260;2023-11-19T02:17:31;11.11;87.30
71942;DHT22;59997;53.300;-6.260;2023-11-19T02:19:57;11.22;87.18
71942;DHT22;59997;53.300;-6.260;2023-11-19T02:22:23;11.15;87.21
71942;DHT22;59997;53.300;-6.260;2023-11-19T02:24:51;11.25;87.12
71942;DHT22;59997;53.300;-6.260;2023-11-19T02:28:15;11.23;87.30
71942;DHT22;59997;53.300;-6.260;2023-11-19T02:30:16;11.25;87.28
71942;DHT22;59997;53.300;-6.260;2023-11-19T02:32:42;11.26;87.13
71942;DHT22;59997;53.300;-6.260;2023-11-19T02:35:07;11.25;87.20
71942;DHT22;59997;53.300;-6.260;2023-11-19T02:37:34;11.32;87.26
71942;DHT22;59997;53.300;-6.260;2023-11-19T02:39:59;11.23;87.53
71942;DHT22;59997;53.300;-6.260;2023-11-19T02:42:28;11.23;87.61
71942;DHT22;59997;53.300;-6.260;2023-11-19T02:44:53;11.32;87.31
71942;DHT22;59997;53.300;-6.260;2023-11-19T02:47:19;11.37;87.19
71942;DHT22;59997;53.300;-6.260;2023-11-19T02:49:47;11.39;87.00
71942;DHT22;59997;53.300;-6.260;2023-11-19T02:52:13;11.32;87.13
71942;DHT22;59997;53.300;-6.260;2023-11-19T02:54:39;11.33;87.19
71942;DHT22;59997;53.300;-6.260;2023-11-19T02:57:06;11.33;87.03
71942;DHT22;59997;53.300;-6.260;2023-11-19T02:59:35;11.37;86.98
71942;DHT22;59997;53.300;-6.260;2023-11-19T03:02:05;11.42;86.84
71942;DHT22;59997;53.300;-6.260;2023-11-19T03:04:33;11.35;87.22
71942;DHT22;59997;53.300;-6.260;2023-11-19T03:06:58;11.33;87.19
71942;DHT22;59997;53.300;-6.260;2023-11-19T03:09:24;11.43;86.99
71942;DHT22;59997;53.300;-6.260;2023-11-19T03:11:50;11.47;86.83
71942;DHT22;59997;53.300;-6.260;2023-11-19T03:14:15;11.53;86.59
71942;DHT22;59997;53.300;-6.260;2023-11-19T03:16:45;11.50;86.94
71942;DHT22;59997;53.300;-6.260;2023-11-19T03:19:11;11.54;86.70
71942;DHT22;59997;53.300;-6.260;2023-11-19T03:21:37;11.52;86.95
71942;DHT22;59997;53.300;-6.260;2023-11-19T03:24:02;11.57;86.42
71942;DHT22;59997;53.300;-6.260;2023-11-19T03:26:28;11.60;86.56
71942;DHT22;59997;53.300;-6.260;2023-11-19T03:28:54;11.60;86.42
71942;DHT22;59997;53.300;-6.260;2023-11-19T03:31:22;11.60;86.33
71942;DHT22;59997;53.300;-6.260;2023-11-19T03:33:48;11.57;86.36
71942;DHT22;59997;53.300;-6.260;2023-11-19T03:36:13;11.52;86.71
71942;DHT22;59997;53.300;-6.260;2023-11-19T03:38:39;11.46;87.11
71942;DHT22;59997;53.300;-6.260;2023-11-19T03:41:14;11.44;87.17
71942;DHT22;59997;53.300;-6.260;2023-11-19T03:43:42;11.37;87.29
71942;DHT22;59997;53.300;-6.260;2023-11-19T03:46:17;11.33;87.59
71942;DHT22;59997;53.300;-6.260;2023-11-19T03:48:43;11.12;88.06
71942;DHT22;59997;53.300;-6.260;2023-11-19T03:51:08;11.16;88.21
71942;DHT22;59997;53.300;-6.260;2023-11-19T03:53:35;11.26;87.93
71942;DHT22;59997;53.300;-6.260;2023-11-19T03:56:01;11.28;87.88
71942;DHT22;59997;53.300;-6.260;2023-11-19T03:58:26;11.25;87.89
71942;DHT22;59997;53.300;-6.260;2023-11-19T04:00:51;11.25;87.64
71942;DHT22;59997;53.300;-6.260;2023-11-19T04:03:17;11.16;88.07
71942;DHT22;59997;53.300;-6.260;2023-11-19T04:05:44;11.16;88.27
71942;DHT22;59997;53.300;-6.260;2023-11-19T04:08:10;11.18;88.08
71942;DHT22;59997;53.300;-6.260;2023-11-19T04:10:35;11.22;88.01
71942;DHT22;59997;53.300;-6.260;2023-11-19T04:13:01;11.25;87.95
71942;DHT22;59997;53.300;-6.260;2023-11-19T04:15:26;11.23;87.95
71942;DHT22;59997;53.300;-6.260;2023-11-19T04:17:52;11.07;88.31
71942;DHT22;59997;53.300;-6.260;2023-11-19T04:20:17;11.07;88.28
71942;DHT22;59997;53.300;-6.260;2023-11-19T04:22:43;11.12;88.29
71942;DHT22;59997;53.300;-6.260;2023-11-19T04:25:08;11.19;88.10
71942;DHT22;59997;53.300;-6.260;2023-11-19T04:27:34;11.11;88.37
71942;DHT22;59997;53.300;-6.260;2023-11-19T04:30:00;11.14;88.44
71942;DHT22;59997;53.300;-6.260;2023-11-19T04:32:27;11.15;88.48
71942;DHT22;59997;53.300;-6.260;2023-11-19T04:34:52;11.11;88.73
71942;DHT22;59997;53.300;-6.260;2023-11-19T04:37:18;11.11;88.97
71942;DHT22;59997;53.300;-6.260;2023-11-19T04:39:46;11.16;88.98
71942;DHT22;59997;53.300;-6.260;2023-11-19T04:42:11;11.08;89.05
71942;DHT22;59997;53.300;-6.260;2023-11-19T04:44:37;11.02;89.27
71942;DHT22;59997;53.300;-6.260;2023-11-19T04:47:03;10.93;89.48
71942;DHT22;59997;53.300;-6.260;2023-11-19T04:49:28;10.91;89.53
71942;DHT22;59997;53.300;-6.260;2023-11-19T04:51:55;11.00;89.11
71942;DHT22;59997;53.300;-6.260;2023-11-19T04:54:21;11.01;88.95
71942;DHT22;59997;53.300;-6.260;2023-11-19T04:56:47;11.04;88.95
71942;DHT22;59997;53.300;-6.260;2023-11-19T04:59:12;11.08;88.84
71942;DHT22;59997;53.300;-6.260;2023-11-19T05:01:38;11.01;88.94
71942;DHT22;59997;53.300;-6.260;2023-11-19T05:04:03;10.98;89.18
71942;DHT22;59997;53.300;-6.260;2023-11-19T05:06:30;11.02;89.15
71942;DHT22;59997;53.300;-6.260;2023-11-19T05:08:56;11.04;89.19
71942;DHT22;59997;53.300;-6.260;2023-11-19T05:11:22;11.05;89.00
71942;DHT22;59997;53.300;-6.260;2023-11-19T05:13:48;11.08;88.94
71942;DHT22;59997;53.300;-6.260;2023-11-19T05:16:13;11.21;88.67
71942;DHT22;59997;53.300;-6.260;2023-11-19T05:18:42;11.18;88.76
71942;DHT22;59997;53.300;-6.260;2023-11-19T05:21:07;11.19;88.66
71942;DHT22;59997;53.300;-6.260;2023-11-19T05:23:33;11.21;88.58
71942;DHT22;59997;53.300;-6.260;2023-11-19T05:26:00;11.30;88.22
71942;DHT22;59997;53.300;-6.260;2023-11-19T05:28:26;11.37;88.04
71942;DHT22;59997;53.300;-6.260;2023-11-19T05:30:51;11.35;88.16
71942;DHT22;59997;53.300;-6.260;2023-11-19T05:33:17;11.28;88.20
71942;DHT22;59997;53.300;-6.260;2023-11-19T05:35:42;11.33;88.01
71942;DHT22;59997;53.300;-6.260;2023-11-19T05:38:08;11.35;87.95
71942;DHT22;59997;53.300;-6.260;2023-11-19T05:40:34;11.35;88.15
71942;DHT22;59997;53.300;-6.260;2023-11-19T05:43:00;11.47;87.73
71942;DHT22;59997;53.300;-6.260;2023-11-19T05:45:25;11.47;87.63
71942;DHT22;59997;53.300;-6.260;2023-11-19T05:47:51;11.42;87.82
71942;DHT22;59997;53.300;-6.260;2023-11-19T05:50:18;11.39;88.04
71942;DHT22;59997;53.300;-6.260;2023-11-19T05:52:43;11.36;88.16
71942;DHT22;59997;53.300;-6.260;2023-11-19T05:55:09;11.39;88.18
71942;DHT22;59997;53.300;-6.260;2023-11-19T05:57:36;11.40;88.22
71942;DHT22;59997;53.300;-6.260;2023-11-19T06:00:02;11.40;88.53
71942;DHT22;59997;53.300;-6.260;2023-11-19T06:02:32;11.32;89.52
71942;DHT22;59997;53.300;-6.260;2023-11-19T06:04:58;11.16;90.16
71942;DHT22;59997;53.300;-6.260;2023-11-19T06:07:23;11.02;90.69
71942;DHT22;59997;53.300;-6.260;2023-11-19T06:09:49;10.91;90.96
71942;DHT22;59997;53.300;-6.260;2023-11-19T06:12:14;10.87;91.22
71942;DHT22;59997;53.300;-6.260;2023-11-19T06:14:40;10.97;90.74
71942;DHT22;59997;53.300;-6.260;2023-11-19T06:17:06;11.01;90.45
71942;DHT22;59997;53.300;-6.260;2023-11-19T06:19:31;11.10;90.39
71942;DHT22;59997;53.300;-6.260;2023-11-19T06:21:57;11.11;90.31
71942;DHT22;59997;53.300;-6.260;2023-11-19T06:24:22;11.12;90.46
71942;DHT22;59997;53.300;-6.260;2023-11-19T06:26:48;11.08;90.72
71942;DHT22;59997;53.300;-6.260;2023-11-19T06:29:13;11.10;90.67
71942;DHT22;59997;53.300;-6.260;2023-11-19T06:31:43;11.11;90.56
71942;DHT22;59997;53.300;-6.260;2023-11-19T06:34:09;11.12;90.81
71942;DHT22;59997;53.300;-6.260;2023-11-19T06:36:35;11.10;90.93
71942;DHT22;59997;53.300;-6.260;2023-11-19T06:39:00;10.97;91.09
71942;DHT22;59997;53.300;-6.260;2023-11-19T06:41:27;11.04;90.68
71942;DHT22;59997;53.300;-6.260;2023-11-19T06:43:54;10.98;90.63
71942;DHT22;59997;53.300;-6.260;2023-11-19T06:46:19;11.00;90.58
71942;DHT22;59997;53.300;-6.260;2023-11-19T06:48:45;11.01;90.55
71942;DHT22;59997;53.300;-6.260;2023-11-19T06:51:11;10.97;90.66
71942;DHT22;59997;53.300;-6.260;2023-11-19T06:53:37;10.95;90.68
71942;DHT22;59997;53.300;-6.260;2023-11-19T06:56:03;11.05;90.55
71942;DHT22;59997;53.300;-6.260;2023-11-19T06:58:36;11.19;90.31
71942;DHT22;59997;53.300;-6.260;2023-11-19T07:01:01;11.30;90.15
71942;DHT22;59997;53.300;-6.260;2023-11-19T07:03:27;11.36;89.91
71942;DHT22;59997;53.300;-6.260;2023-11-19T07:05:52;11.36;89.88
71942;DHT22;59997;53.300;-6.260;2023-11-19T07:08:18;11.43;89.48
71942;DHT22;59997;53.300;-6.260;2023-11-19T07:10:43;11.59;89.43
71942;DHT22;59997;53.300;-6.260;2023-11-19T07:13:09;11.52;90.05
71942;DHT22;59997;53.300;-6.260;2023-11-19T07:15:34;11.40;90.25
71942;DHT22;59997;53.300;-6.260;2023-11-19T07:18:00;11.39;90.26
71942;DHT22;59997;53.300;-6.260;2023-11-19T07:20:26;11.39;90.25
71942;DHT22;59997;53.300;-6.260;2023-11-19T07:22:52;11.43;90.35
71942;DHT22;59997;53.300;-6.260;2023-11-19T07:25:17;11.47;90.31
71942;DHT22;59997;53.300;-6.260;2023-11-19T07:27:43;11.52;90.26
71942;DHT22;59997;53.300;-6.260;2023-11-19T07:30:08;11.60;90.03
71942;DHT22;59997;53.300;-6.260;2023-11-19T07:32:34;11.64;90.00
71942;DHT22;59997;53.300;-6.260;2023-11-19T07:35:00;11.66;90.13
71942;DHT22;59997;53.300;-6.260;2023-11-19T07:37:25;11.64;90.16
71942;DHT22;59997;53.300;-6.260;2023-11-19T07:39:51;11.54;90.37
71942;DHT22;59997;53.300;-6.260;2023-11-19T07:42:17;11.50;90.76
71942;DHT22;59997;53.300;-6.260;2023-11-19T07:44:43;11.49;90.84
71942;DHT22;59997;53.300;-6.260;2023-11-19T07:47:10;11.53;90.87
71942;DHT22;59997;53.300;-6.260;2023-11-19T07:49:36;11.54;90.87
71942;DHT22;59997;53.300;-6.260;2023-11-19T07:52:02;11.54;90.83
71942;DHT22;59997;53.300;-6.260;2023-11-19T07:54:28;11.62;90.62
71942;DHT22;59997;53.300;-6.260;2023-11-19T07:56:54;11.62;90.68
71942;DHT22;59997;53.300;-6.260;2023-11-19T07:59:19;11.57;90.69
71942;DHT22;59997;53.300;-6.260;2023-11-19T08:01:45;11.50;90.83
71942;DHT22;59997;53.300;-6.260;2023-11-19T08:04:10;11.53;90.81
71942;DHT22;59997;53.300;-6.260;2023-11-19T08:06:36;11.57;90.86
71942;DHT22;59997;53.300;-6.260;2023-11-19T08:09:02;11.66;90.71
71942;DHT22;59997;53.300;-6.260;2023-11-19T08:11:27;11.66;90.77
71942;DHT22;59997;53.300;-6.260;2023-11-19T08:13:53;11.69;90.73
71942;DHT22;59997;53.300;-6.260;2023-11-19T08:16:18;11.73;90.87
71942;DHT22;59997;53.300;-6.260;2023-11-19T08:18:43;11.75;91.07
71942;DHT22;59997;53.300;-6.260;2023-11-19T08:21:09;11.71;91.14
71942;DHT22;59997;53.300;-6.260;2023-11-19T08:23:36;11.71;91.06
71942;DHT22;59997;53.300;-6.260;2023-11-19T08:26:01;11.70;91.06
71942;DHT22;59997;53.300;-6.260;2023-11-19T08:28:27;11.69;90.98
71942;DHT22;59997;53.300;-6.260;2023-11-19T08:30:53;11.69;91.03
71942;DHT22;59997;53.300;-6.260;2023-11-19T08:33:18;11.77;90.97
71942;DHT22;59997;53.300;-6.260;2023-11-19T08:35:44;11.70;91.01
71942;DHT22;59997;53.300;-6.260;2023-11-19T08:38:10;11.64;90.95
71942;DHT22;59997;53.300;-6.260;2023-11-19T08:40:35;11.54;90.81
71942;DHT22;59997;53.300;-6.260;2023-11-19T08:43:01;11.54;90.63
71942;DHT22;59997;53.300;-6.260;2023-11-19T08:45:26;11.50;90.58
71942;DHT22;59997;53.300;-6.260;2023-11-19T08:47:52;11.47;90.54
71942;DHT22;59997;53.300;-6.260;2023-11-19T08:50:17;11.47;90.43
71942;DHT22;59997;53.300;-6.260;2023-11-19T08:52:43;11.56;90.45
71942;DHT22;59997;53.300;-6.260;2023-11-19T08:55:08;11.63;90.26
71942;DHT22;59997;53.300;-6.260;2023-11-19T08:57:35;11.63;90.32
71942;DHT22;59997;53.300;-6.260;2023-11-19T09:00:00;11.62;90.39
71942;DHT22;59997;53.300;-6.260;2023-11-19T09:02:26;11.59;90.53
71942;DHT22;59997;53.300;-6.260;2023-11-19T09:04:51;11.60;90.67
71942;DHT22;59997;53.300;-6.260;2023-11-19T09:07:17;11.59;90.62
71942;DHT22;59997;53.300;-6.260;2023-11-19T09:09:42;11.60;90.54
71942;DHT22;59997;53.300;-6.260;2023-11-19T09:12:08;11.52;90.62
71942;DHT22;59997;53.300;-6.260;2023-11-19T09:14:33;11.49;90.75
71942;DHT22;59997;53.300;-6.260;2023-11-19T09:16:59;11.53;90.75
71942;DHT22;59997;53.300;-6.260;2023-11-19T09:19:25;11.53;90.83
71942;DHT22;59997;53.300;-6.260;2023-11-19T09:21:54;11.53;90.87
71942;DHT22;59997;53.300;-6.260;2023-11-19T09:24:20;11.52;90.94
71942;DHT22;59997;53.300;-6.260;2023-11-19T09:26:46;11.54;91.04
71942;DHT22;59997;53.300;-6.260;2023-11-19T09:29:11;11.54;91.07
71942;DHT22;59997;53.300;-6.260;2023-11-19T09:31:40;11.53;91.11
71942;DHT22;59997;53.300;-6.260;2023-11-19T09:34:07;11.57;91.14
71942;DHT22;59997;53.300;-6.260;2023-11-19T09:36:33;11.64;91.12
71942;DHT22;59997;53.300;-6.260;2023-11-19T09:38:58;11.70;91.09
71942;DHT22;59997;53.300;-6.260;2023-11-19T09:41:26;11.77;90.88
71942;DHT22;59997;53.300;-6.260;2023-11-19T09:43:53;11.82;90.89
71942;DHT22;59997;53.300;-6.260;2023-11-19T09:46:19;11.87;90.87
71942;DHT22;59997;53.300;-6.260;2023-11-19T09:48:45;11.94;90.81
71942;DHT22;59997;53.300;-6.260;2023-11-19T09:51:11;12.01;90.64
71942;DHT22;59997;53.300;-6.260;2023-11-19T09:53:37;12.05;90.63
71942;DHT22;59997;53.300;-6.260;2023-11-19T09:56:06;12.09;90.45
71942;DHT22;59997;53.300;-6.260;2023-11-19T09:58:33;12.15;90.47
71942;DHT22;59997;53.300;-6.260;2023-11-19T10:01:00;12.22;90.35
71942;DHT22;59997;53.300;-6.260;2023-11-19T10:03:35;12.26;90.39
71942;DHT22;59997;53.300;-6.260;2023-11-19T10:06:03;12.29;90.49
71942;DHT22;59997;53.300;-6.260;2023-11-19T10:08:30;12.33;90.44
71942;DHT22;59997;53.300;-6.260;2023-11-19T10:10:55;12.43;90.49
71942;DHT22;59997;53.300;-6.260;2023-11-19T10:13:29;12.49;90.60
71942;DHT22;59997;53.300;-6.260;2023-11-19T10:15:55;12.43;90.71
71942;DHT22;59997;53.300;-6.260;2023-11-19T10:18:27;12.44;90.61
71942;DHT22;59997;53.300;-6.260;2023-11-19T10:20:53;12.43;90.75
71942;DHT22;59997;53.300;-6.260;2023-11-19T10:23:19;12.44;90.63
71942;DHT22;59997;53.300;-6.260;2023-11-19T10:25:44;12.51;90.69
71942;DHT22;59997;53.300;-6.260;2023-11-19T10:28:10;12.60;90.58
71942;DHT22;59997;53.300;-6.260;2023-11-19T10:30:35;12.81;90.64
71942;DHT22;59997;53.300;-6.260;2023-11-19T10:33:12;12.87;90.53
71942;DHT22;59997;53.300;-6.260;2023-11-19T10:35:56;12.88;90.64
71942;DHT22;59997;53.300;-6.260;2023-11-19T10:38:25;12.82;90.66
71942;DHT22;59997;53.300;-6.260;2023-11-19T10:40:52;12.82;90.75
71942;DHT22;59997;53.300;-6.260;2023-11-19T10:43:18;12.87;90.60
71942;DHT22;59997;53.300;-6.260;2023-11-19T10:45:44;12.88;90.88
71942;DHT22;59997;53.300;-6.260;2023-11-19T10:48:10;12.84;90.92
71942;DHT22;59997;53.300;-6.260;2023-11-19T10:50:38;12.78;91.00
71942;DHT22;59997;53.300;-6.260;2023-11-19T10:53:05;12.80;90.87
71942;DHT22;59997;53.300;-6.260;2023-11-19T10:55:33;12.78;90.79
71942;DHT22;59997;53.300;-6.260;2023-11-19T10:58:07;12.71;90.82
71942;DHT22;59997;53.300;-6.260;2023-11-19T11:03:15;12.67;90.71
71942;DHT22;59997;53.300;-6.260;2023-11-19T11:05:42;12.67;90.72
71942;DHT22;59997;53.300;-6.260;2023-11-19T11:08:08;12.73;90.54
71942;DHT22;59997;53.300;-6.260;2023-11-19T11:10:39;12.71;90.44
71942;DHT22;59997;53.300;-6.260;2023-11-19T11:13:05;12.68;90.53
71942;DHT22;59997;53.300;-6.260;2023-11-19T11:15:31;12.61;90.55
71942;DHT22;59997;53.300;-6.260;2023-11-19T11:18:01;12.64;90.61
71942;DHT22;59997;53.300;-6.260;2023-11-19T11:20:30;12.67;90.55
71942;DHT22;59997;53.300;-6.260;2023-11-19T11:23:49;12.67;90.62
71942;DHT22;59997;53.300;-6.260;2023-11-19T11:28:58;12.71;90.69
71942;DHT22;59997;53.300;-6.260;2023-11-19T11:39:34;12.87;90.75
71942;DHT22;59997;53.300;-6.260;2023-11-19T11:42:30;12.92;90.92
71942;DHT22;59997;53.300;-6.260;2023-11-19T11:50:11;12.84;90.83
71942;DHT22;59997;53.300;-6.260;2023-11-19T11:55:37;12.64;90.85
71942;DHT22;59997;53.300;-6.260;2023-11-19T11:58:28;12.58;90.70
71942;DHT22;59997;53.300;-6.260;2023-11-19T12:00:58;12.63;90.66
71942;DHT22;59997;53.300;-6.260;2023-11-19T12:03:27;12.58;90.52
71942;DHT22;59997;53.300;-6.260;2023-11-19T12:05:52;12.53;90.52
71942;DHT22;59997;53.300;-6.260;2023-11-19T12:08:25;12.51;90.58
71942;DHT22;59997;53.300;-6.260;2023-11-19T12:10:51;12.44;90.59
71942;DHT22;59997;53.300;-6.260;2023-11-19T12:13:18;12.41;90.44
71942;DHT22;59997;53.300;-6.260;2023-11-19T12:18:26;12.58;90.44
71942;DHT22;59997;53.300;-6.260;2023-11-19T12:20:52;12.58;90.52
71942;DHT22;59997;53.300;-6.260;2023-11-19T12:23:18;12.51;90.52
71942;DHT22;59997;53.300;-6.260;2023-11-19T12:25:43;12.53;90.46
71942;DHT22;59997;53.300;-6.260;2023-11-19T12:28:17;12.57;90.44
71942;DHT22;59997;53.300;-6.260;2023-11-19T12:30:43;12.67;90.26
71942;DHT22;59997;53.300;-6.260;2023-11-19T12:33:12;12.56;90.37
71942;DHT22;59997;53.300;-6.260;2023-11-19T12:35:44;12.41;90.44
71942;DHT22;59997;53.300;-6.260;2023-11-19T12:38:21;12.40;90.60
71942;DHT22;59997;53.300;-6.260;2023-11-19T12:40:47;12.33;90.45
71942;DHT22;59997;53.300;-6.260;2023-11-19T12:43:22;12.32;90.38
71942;DHT22;59997;53.300;-6.260;2023-11-19T12:45:48;12.32;90.57
71942;DHT22;59997;53.300;-6.260;2023-11-19T12:48:13;12.25;90.47
71942;DHT22;59997;53.300;-6.260;2023-11-19T12:50:55;12.28;90.64
71942;DHT22;59997;53.300;-6.260;2023-11-19T12:53:23;12.22;90.71
71942;DHT22;59997;53.300;-6.260;2023-11-19T12:55:49;12.16;90.66
71942;DHT22;59997;53.300;-6.260;2023-11-19T12:58:31;12.08;90.69
71942;DHT22;59997;53.300;-6.260;2023-11-19T13:01:07;12.01;90.78
71942;DHT22;59997;53.300;-6.260;2023-11-19T13:03:38;11.95;90.95
71942;DHT22;59997;53.300;-6.260;2023-11-19T13:06:07;11.89;90.41
71942;DHT22;59997;53.300;-6.260;2023-11-19T13:08:37;11.92;90.35
71942;DHT22;59997;53.300;-6.260;2023-11-19T13:11:04;11.98;90.29
71942;DHT22;59997;53.300;-6.260;2023-11-19T13:13:29;11.99;90.34
71942;DHT22;59997;53.300;-6.260;2023-11-19T13:16:04;12.04;90.26
71942;DHT22;59997;53.300;-6.260;2023-11-19T13:18:34;12.06;90.12
71942;DHT22;59997;53.300;-6.260;2023-11-19T13:21:00;12.08;90.25
71942;DHT22;59997;53.300;-6.260;2023-11-19T13:23:25;12.11;90.38
71942;DHT22;59997;53.300;-6.260;2023-11-19T13:25:51;12.13;90.44
71942;DHT22;59997;53.300;-6.260;2023-11-19T13:28:17;12.13;90.53
71942;DHT22;59997;53.300;-6.260;2023-11-19T13:30:42;12.12;90.64
71942;DHT22;59997;53.300;-6.260;2023-11-19T13:33:08;12.06;90.58
71942;DHT22;59997;53.300;-6.260;2023-11-19T13:35:37;12.08;90.37
71942;DHT22;59997;53.300;-6.260;2023-11-19T13:38:05;11.98;90.57
71942;DHT22;59997;53.300;-6.260;2023-11-19T13:40:30;11.97;90.48
71942;DHT22;59997;53.300;-6.260;2023-11-19T13:42:56;11.94;90.26
71942;DHT22;59997;53.300;-6.260;2023-11-19T13:45:21;11.97;90.19
71942;DHT22;59997;53.300;-6.260;2023-11-19T13:47:47;12.02;90.00
71942;DHT22;59997;53.300;-6.260;2023-11-19T13:50:14;12.11;89.79
71942;DHT22;59997;53.300;-6.260;2023-11-19T13:52:44;12.19;89.40
71942;DHT22;59997;53.300;-6.260;2023-11-19T13:55:12;12.25;89.17
71942;DHT22;59997;53.300;-6.260;2023-11-19T13:57:38;12.23;89.17
71942;DHT22;59997;53.300;-6.260;2023-11-19T14:00:05;12.23;89.16
71942;DHT22;59997;53.300;-6.260;2023-11-19T14:02:45;12.25;89.39
71942;DHT22;59997;53.300;-6.260;2023-11-19T14:05:12;12.30;88.88
71942;DHT22;59997;53.300;-6.260;2023-11-19T14:07:38;12.43;88.25
71942;DHT22;59997;53.300;-6.260;2023-11-19T14:10:05;12.51;87.74
71942;DHT22;59997;53.300;-6.260;2023-11-19T14:12:32;12.53;87.51
71942;DHT22;59997;53.300;-6.260;2023-11-19T14:14:57;12.57;86.57
71942;DHT22;59997;53.300;-6.260;2023-11-19T14:17:23;12.56;87.03
71942;DHT22;59997;53.300;-6.260;2023-11-19T14:19:50;12.49;87.01
71942;DHT22;59997;53.300;-6.260;2023-11-19T14:22:16;12.54;86.78
71942;DHT22;59997;53.300;-6.260;2023-11-19T14:24:42;12.63;86.93
71942;DHT22;59997;53.300;-6.260;2023-11-19T14:27:09;12.54;86.81
71942;DHT22;59997;53.300;-6.260;2023-11-19T14:29:35;12.49;87.23
71942;DHT22;59997;53.300;-6.260;2023-11-19T14:32:01;12.46;87.75
71942;DHT22;59997;53.300;-6.260;2023-11-19T14:34:30;12.56;87.62
71942;DHT22;59997;53.300;-6.260;2023-11-19T14:36:56;12.54;86.69
71942;DHT22;59997;53.300;-6.260;2023-11-19T14:39:22;12.56;86.84
71942;DHT22;59997;53.300;-6.260;2023-11-19T14:41:47;12.50;87.13
71942;DHT22;59997;53.300;-6.260;2023-11-19T14:44:14;12.54;87.38
71942;DHT22;59997;53.300;-6.260;2023-11-19T14:46:40;12.46;87.71
71942;DHT22;59997;53.300;-6.260;2023-11-19T14:49:05;12.22;87.70
71942;DHT22;59997;53.300;-6.260;2023-11-19T14:51:35;12.05;88.48
71942;DHT22;59997;53.300;-6.260;2023-11-19T14:54:01;11.81;89.86
71942;DHT22;59997;53.300;-6.260;2023-11-19T14:56:28;11.73;90.31
71942;DHT22;59997;53.300;-6.260;2023-11-19T14:58:53;11.64;90.38
71942;DHT22;59997;53.300;-6.260;2023-11-19T15:01:19;11.54;90.56
71942;DHT22;59997;53.300;-6.260;2023-11-19T15:03:44;11.46;90.45
71942;DHT22;59997;53.300;-6.260;2023-11-19T15:06:10;11.36;90.40
71942;DHT22;59997;53.300;-6.260;2023-11-19T15:08:37;11.32;89.88
71942;DHT22;59997;53.300;-6.260;2023-11-19T15:11:02;11.32;89.75
71942;DHT22;59997;53.300;-6.260;2023-11-19T15:13:30;11.42;89.23
71942;DHT22;59997;53.300;-6.260;2023-11-19T15:15:56;11.46;88.94
71942;DHT22;59997;53.300;-6.260;2023-11-19T15:18:21;11.40;89.34
71942;DHT22;59997;53.300;-6.260;2023-11-19T15:20:48;11.37;89.27
71942;DHT22;59997;53.300;-6.260;2023-11-19T15:23:14;11.39;89.01
71942;DHT22;59997;53.300;-6.260;2023-11-19T15:25:43;11.36;88.72
71942;DHT22;59997;53.300;-6.260;2023-11-19T15:28:08;11.30;88.60
71942;DHT22;59997;53.300;-6.260;2023-11-19T15:30:35;11.32;88.57
71942;DHT22;59997;53.300;-6.260;2023-11-19T15:33:01;11.32;88.46
71942;DHT22;59997;53.300;-6.260;2023-11-19T15:35:26;11.35;88.64
71942;DHT22;59997;53.300;-6.260;2023-11-19T15:37:51;11.40;88.43